createdAt,value
2019-06-26T00:00:50.095Z,5.90
2019-06-26T00:05:54.930Z,5.83
2019-06-26T00:10:59.783Z,6.10
2019-06-26T00:16:04.721Z,6.43
2019-06-26T00:21:09.572Z,5.97
2019-06-26T00:26:14.409Z,6.60
2019-06-26T00:31:19.258Z,6.30
2019-06-26T00:36:24.122Z,6.73
2019-06-26T00:41:28.972Z,6.73
2019-06-26T00:46:33.912Z,6.80
2019-06-26T00:51:38.749Z,6.33
2019-06-26T00:56:45.052Z,6.07
2019-06-26T01:01:50.041Z,6.73
2019-06-26T01:06:55.042Z,6.73
2019-06-26T01:12:01.371Z,6.23
2019-06-26T01:17:07.688Z,6.57
2019-06-26T01:22:14.012Z,6.37
2019-06-26T01:27:21.129Z,6.90
2019-06-26T01:32:27.379Z,6.97
2019-06-26T01:37:33.719Z,7.13
2019-06-26T01:42:40.028Z,7.43
2019-06-26T01:47:45.495Z,7.07
2019-06-26T01:52:51.017Z,8.20
2019-06-26T01:57:56.372Z,7.27
2019-06-26T02:03:02.992Z,8.20
2019-06-26T02:08:07.843Z,7.50
2019-06-26T02:13:12.747Z,8.33
2019-06-26T02:18:37.473Z,8.20
2019-06-26T02:23:42.404Z,9.43
2019-06-26T02:28:47.273Z,8.23
2019-06-26T02:33:52.043Z,9.27
2019-06-26T02:38:56.823Z,9.03
2019-06-26T02:44:02.369Z,7.63
2019-06-26T02:49:07.836Z,7.90
2019-06-26T02:54:12.768Z,7.63
2019-06-26T02:59:18.111Z,9.50
2019-06-26T03:04:23.218Z,9.37
2019-06-26T03:09:28.089Z,9.13
2019-06-26T03:14:33.760Z,9.30
2019-06-26T03:19:38.610Z,8.67
2019-06-26T03:24:43.463Z,9.20
2019-06-26T03:29:48.292Z,8.20
2019-06-26T03:34:53.142Z,8.53
2019-06-26T03:39:57.989Z,8.67
2019-06-26T03:45:03.431Z,8.60
2019-06-26T03:50:08.364Z,9.63
2019-06-26T03:55:13.315Z,9.63
2019-06-26T04:00:24.168Z,10.07
2019-06-26T04:05:29.110Z,9.83
2019-06-26T04:10:35.174Z,10.60
2019-06-26T04:15:42.574Z,11.80
2019-06-26T04:20:47.105Z,12.50
2019-06-26T04:25:52.268Z,11.93
2019-06-26T04:30:57.138Z,11.57
2019-06-26T04:36:01.988Z,14.23
2019-06-26T04:41:06.855Z,14.93
2019-06-26T04:46:11.699Z,14.90
2019-06-26T04:51:16.543Z,15.03
2019-06-26T04:56:21.413Z,16.03
2019-06-26T05:01:26.379Z,15.57
2019-06-26T05:06:31.347Z,13.70
2019-06-26T05:11:36.189Z,14.53
2019-06-26T05:16:41.251Z,14.27
2019-06-26T05:21:46.108Z,14.03
2019-06-26T05:26:50.954Z,14.63
2019-06-26T05:31:55.803Z,13.90
2019-06-26T05:37:00.654Z,14.07
2019-06-26T05:42:06.973Z,13.53
2019-06-26T05:47:11.855Z,14.13
2019-06-26T05:52:16.883Z,12.93
2019-06-26T05:57:21.745Z,12.03
2019-06-26T06:02:26.667Z,12.50
2019-06-26T06:07:32.200Z,12.10
2019-06-26T06:12:37.039Z,11.15
2019-06-26T06:17:41.942Z,10.58
2019-06-26T06:22:46.792Z,10.90
2019-06-26T06:27:51.692Z,10.45
2019-06-26T06:32:56.578Z,10.85
2019-06-26T06:38:01.358Z,11.22
2019-06-26T06:43:06.203Z,11.97
2019-06-26T06:48:10.980Z,10.82
2019-06-26T06:53:15.830Z,11.00
2019-06-26T06:58:20.611Z,11.60
2019-06-26T07:03:25.453Z,11.20
2019-06-26T07:08:30.371Z,10.78
2019-06-26T07:13:35.216Z,10.43
2019-06-26T07:18:40.043Z,9.95
2019-06-26T07:23:44.869Z,9.25
2019-06-26T07:28:49.719Z,8.95
2019-06-26T07:33:55.656Z,8.55
2019-06-26T07:39:01.021Z,7.97
2019-06-26T07:44:05.864Z,8.05
2019-06-26T07:49:10.639Z,8.20
2019-06-26T07:54:15.483Z,8.23
2019-06-26T07:59:20.337Z,8.10
2019-06-26T08:04:25.210Z,8.10
2019-06-26T08:09:30.107Z,7.75
2019-06-26T08:14:34.935Z,7.22
2019-06-26T08:19:39.795Z,6.92
2019-06-26T08:24:44.642Z,6.17
2019-06-26T08:29:49.484Z,6.90
2019-06-26T08:34:54.260Z,6.90
2019-06-26T08:39:59.108Z,6.58
2019-06-26T08:45:04.951Z,6.90
2019-06-26T08:50:10.699Z,6.30
2019-06-26T08:55:15.753Z,54.10
2019-06-26T09:00:21.105Z,10.95
2019-06-26T09:05:25.947Z,6.50
2019-06-26T09:10:30.858Z,6.97
2019-06-26T09:15:35.699Z,6.05
2019-06-26T09:20:41.063Z,6.25
2019-06-26T09:25:45.839Z,6.08
2019-06-26T09:30:50.682Z,4.95
2019-06-26T09:35:55.532Z,5.03
2019-06-26T09:41:00.384Z,5.10
2019-06-26T09:46:05.219Z,5.12
2019-06-26T09:51:10.071Z,5.00
2019-06-26T09:56:14.922Z,4.85
2019-06-26T10:01:19.768Z,4.67
2019-06-26T10:06:24.625Z,4.97
2019-06-26T10:11:29.475Z,4.67
2019-06-26T10:16:34.311Z,5.15
2019-06-26T10:21:39.234Z,5.55
2019-06-26T10:26:44.315Z,4.47
2019-06-26T10:31:49.151Z,4.78
2019-06-26T10:36:54.013Z,5.30
2019-06-26T10:41:58.838Z,5.20
2019-06-26T10:47:03.811Z,4.60
2019-06-26T10:52:08.651Z,4.28
2019-06-26T10:57:13.476Z,4.60
2019-06-26T11:02:18.415Z,5.15
2019-06-26T11:07:23.378Z,4.90
2019-06-26T11:12:28.146Z,4.50
2019-06-26T11:17:32.983Z,4.80
2019-06-26T11:22:37.883Z,3.40
2019-06-26T11:27:42.719Z,4.20
2019-06-26T11:32:47.566Z,4.72
2019-06-26T11:37:52.505Z,4.62
2019-06-26T11:42:57.349Z,4.08
2019-06-26T11:48:02.197Z,4.62
2019-06-26T11:53:07.095Z,4.20
2019-06-26T11:58:12.122Z,4.97
2019-06-26T12:03:16.969Z,4.92
2019-06-26T12:08:21.877Z,4.83
2019-06-26T12:13:26.731Z,4.90
2019-06-26T12:18:31.567Z,5.03
2019-06-26T12:23:36.469Z,5.83
2019-06-26T12:28:41.315Z,5.40
2019-06-26T12:33:46.083Z,5.37
2019-06-26T12:38:51.093Z,5.55
2019-06-26T12:43:56.039Z,10.75
2019-06-26T12:49:01.607Z,6.28
2019-06-26T12:54:06.453Z,5.62
2019-06-26T12:59:11.294Z,8.65
2019-06-26T13:04:16.147Z,6.50
2019-06-26T13:09:20.994Z,6.30
2019-06-26T13:14:25.860Z,6.45
2019-06-26T13:19:30.714Z,5.95
2019-06-26T13:24:35.672Z,6.25
2019-06-26T13:29:40.512Z,6.25
2019-06-26T13:34:45.383Z,6.40
2019-06-26T13:39:50.227Z,5.95
2019-06-26T13:44:55.072Z,7.00
2019-06-26T13:49:59.983Z,6.47
2019-06-26T13:55:06.529Z,6.75
2019-06-26T14:00:13.667Z,6.50
2019-06-26T14:05:19.023Z,6.42
2019-06-26T14:10:24.435Z,5.70
2019-06-26T14:15:29.377Z,6.67
2019-06-26T14:20:34.249Z,11.70
2019-06-26T14:25:39.120Z,11.35
2019-06-26T14:30:44.146Z,7.97
2019-06-26T14:35:49.035Z,5.90
2019-06-26T14:40:53.883Z,7.00
2019-06-26T14:45:58.731Z,6.53
2019-06-26T14:51:03.599Z,6.85
2019-06-26T14:56:08.341Z,7.58
2019-06-26T15:01:13.203Z,7.00
2019-06-26T15:06:18.050Z,7.00
2019-06-26T15:11:23.323Z,7.25
2019-06-26T15:16:30.411Z,5.67
2019-06-26T15:21:34.634Z,7.40
2019-06-26T15:26:39.482Z,5.40
2019-06-26T15:31:44.361Z,5.53
2019-06-26T15:36:49.303Z,5.47
2019-06-26T15:41:54.164Z,8.03
2019-06-26T15:46:59.020Z,5.87
2019-06-26T15:52:14.630Z,5.40
2019-06-26T15:57:10.425Z,5.95
2019-06-26T16:02:15.254Z,5.15
2019-06-26T16:07:20.204Z,6.55
2019-06-26T16:12:25.040Z,5.30
2019-06-26T16:17:34.472Z,5.33
2019-06-26T16:22:39.353Z,6.20
2019-06-26T16:27:44.170Z,5.15
2019-06-26T16:32:49.021Z,5.08
2019-06-26T16:37:53.910Z,5.67
2019-06-26T16:42:59.146Z,4.17
2019-06-26T16:48:04.178Z,4.72
2019-06-26T16:53:09.014Z,5.35
2019-06-26T16:58:13.848Z,6.47
2019-06-26T17:03:20.323Z,5.10
2019-06-26T17:08:25.224Z,7.80
2019-06-26T17:13:30.088Z,6.03
2019-06-26T17:18:34.949Z,8.80
2019-06-26T17:23:39.798Z,7.00
2019-06-26T17:28:44.735Z,6.40
2019-06-26T17:33:49.625Z,7.05
2019-06-26T17:38:54.481Z,8.13
2019-06-26T17:43:59.371Z,8.83
2019-06-26T17:49:04.217Z,6.90
2019-06-26T17:54:11.112Z,7.30
2019-06-26T17:59:15.970Z,6.95
2019-06-26T18:04:22.282Z,7.25
2019-06-26T18:09:28.586Z,6.78
2019-06-26T18:14:33.425Z,6.78
2019-06-26T18:19:38.388Z,7.75
2019-06-26T18:24:43.219Z,7.05
2019-06-26T18:29:48.057Z,11.35
2019-06-26T18:34:52.912Z,19.15
2019-06-26T18:39:57.867Z,22.00
2019-06-26T18:45:02.714Z,42.67
2019-06-26T18:50:10.084Z,50.28
2019-06-26T18:55:14.982Z,29.65
2019-06-26T19:00:20.528Z,11.70
2019-06-26T19:05:29.301Z,27.65
2019-06-26T19:10:34.152Z,17.17
2019-06-26T19:15:39.025Z,22.70
2019-06-26T19:20:43.874Z,17.60
2019-06-26T19:25:48.712Z,24.15
2019-06-26T19:30:53.557Z,18.50
2019-06-26T19:35:58.414Z,13.10
2019-06-26T19:41:07.567Z,9.30
2019-06-26T19:46:11.211Z,8.63
2019-06-26T19:51:16.276Z,6.72
2019-06-26T19:56:21.110Z,9.00
2019-06-26T20:01:28.084Z,8.00
2019-06-26T20:06:32.918Z,8.90
2019-06-26T20:11:37.757Z,5.80
2019-06-26T20:16:42.597Z,6.42
2019-06-26T20:21:47.559Z,5.62
2019-06-26T20:26:52.408Z,5.73
2019-06-26T20:31:57.335Z,5.40
2019-06-26T20:37:02.217Z,7.40
2019-06-26T20:42:07.097Z,5.70
2019-06-26T20:47:11.964Z,6.05
2019-06-26T20:52:16.822Z,5.30
2019-06-26T20:57:21.704Z,6.10
2019-06-26T21:02:26.629Z,5.93
2019-06-26T21:07:31.447Z,7.03
2019-06-26T21:12:36.346Z,7.57
2019-06-26T21:17:41.299Z,6.30
2019-06-26T21:22:46.138Z,7.05
2019-06-26T21:27:50.978Z,7.53
2019-06-26T21:32:55.834Z,6.40
2019-06-26T21:38:00.782Z,7.17
2019-06-26T21:43:08.965Z,7.40
2019-06-26T21:48:13.820Z,7.20
2019-06-26T21:53:18.640Z,7.30
2019-06-26T21:58:23.489Z,8.07
2019-06-26T22:03:28.671Z,7.60
2019-06-26T22:08:33.519Z,8.07
2019-06-26T22:13:38.358Z,8.97
2019-06-26T22:18:43.200Z,9.23
2019-06-26T22:23:48.049Z,9.40
2019-06-26T22:28:52.873Z,9.67
2019-06-26T22:33:57.784Z,9.50
2019-06-26T22:39:04.309Z,9.13
2019-06-26T22:44:09.134Z,9.40
2019-06-26T22:49:13.975Z,8.80
2019-06-26T22:54:19.863Z,8.97
2019-06-26T22:59:25.176Z,8.67
2019-06-26T23:04:30.152Z,7.80
2019-06-26T23:09:34.992Z,9.20
2019-06-26T23:14:39.929Z,8.63
2019-06-26T23:19:45.045Z,7.97
2019-06-26T23:24:49.888Z,9.53
2019-06-26T23:29:54.720Z,8.97
2019-06-26T23:34:59.555Z,8.90
2019-06-26T23:40:06.190Z,8.57
2019-06-26T23:45:11.530Z,8.83
2019-06-26T23:50:16.456Z,8.43
2019-06-26T23:55:21.619Z,8.33
